地図

経路データ

SID SEASON NUMBER BASIN SUBBASIN NAME ISO_TIME NATURE LAT LON WMO_WIND WMO_PRES WMO_AGENCY TRACK_TYPE DIST2LAND LANDFALL IFLAG USA_AGENCY USA_ATCF_ID USA_LAT USA_LON USA_RECORD USA_STATUS USA_WIND USA_PRES USA_SSHS USA_R34_NE USA_R34_SE USA_R34_SW USA_R34_NW USA_R50_NE USA_R50_SE USA_R50_SW USA_R50_NW USA_R64_NE USA_R64_SE USA_R64_SW USA_R64_NW USA_POCI USA_ROCI USA_RMW USA_EYE TOKYO_LAT TOKYO_LON TOKYO_GRADE TOKYO_WIND TOKYO_PRES TOKYO_R50_DIR TOKYO_R50_LONG TOKYO_R50_SHORT TOKYO_R30_DIR TOKYO_R30_LONG TOKYO_R30_SHORT TOKYO_LAND CMA_LAT CMA_LON CMA_CAT CMA_WIND CMA_PRES HKO_LAT HKO_LON HKO_CAT HKO_WIND HKO_PRES NEWDELHI_LAT NEWDELHI_LON NEWDELHI_GRADE NEWDELHI_WIND NEWDELHI_PRES NEWDELHI_CI NEWDELHI_DP NEWDELHI_POCI REUNION_LAT REUNION_LON REUNION_TYPE REUNION_WIND REUNION_PRES REUNION_TNUM REUNION_CI REUNION_RMW REUNION_R34_NE REUNION_R34_SE REUNION_R34_SW REUNION_R34_NW REUNION_R50_NE REUNION_R50_SE REUNION_R50_SW REUNION_R50_NW REUNION_R64_NE REUNION_R64_SE REUNION_R64_SW REUNION_R64_NW BOM_LAT BOM_LON BOM_TYPE BOM_WIND BOM_PRES BOM_TNUM BOM_CI BOM_RMW BOM_R34_NE BOM_R34_SE BOM_R34_SW BOM_R34_NW BOM_R50_NE BOM_R50_SE BOM_R50_SW BOM_R50_NW BOM_R64_NE BOM_R64_SE BOM_R64_SW BOM_R64_NW BOM_ROCI BOM_POCI BOM_EYE BOM_POS_METHOD BOM_PRES_METHOD NADI_LAT NADI_LON NADI_CAT NADI_WIND NADI_PRES WELLINGTON_LAT WELLINGTON_LON WELLINGTON_WIND WELLINGTON_PRES DS824_LAT DS824_LON DS824_STAGE DS824_WIND DS824_PRES TD9636_LAT TD9636_LON TD9636_STAGE TD9636_WIND TD9636_PRES TD9635_LAT TD9635_LON TD9635_WIND TD9635_PRES TD9635_ROCI NEUMANN_LAT NEUMANN_LON NEUMANN_CLASS NEUMANN_WIND NEUMANN_PRES MLC_LAT MLC_LON MLC_CLASS MLC_WIND MLC_PRES USA_GUST BOM_GUST BOM_GUST_PER REUNION_GUST REUNION_GUST_PER USA_SEAHGT USA_SEARAD_NE USA_SEARAD_SE USA_SEARAD_SW USA_SEARAD_NW STORM_SPEED STORM_DIR
1949222N25133 1949 55 WP MM NOT_NAMED 1949-08-09 18:00:00 TS 25.2000 133.000 main 685 650 __O___________ -1 25.2000 133.000 0 1007 18 47
1949222N25133 1949 55 WP MM NOT_NAMED 1949-08-09 21:00:00 TS 25.7985 133.705 main 650 625 __P___________ -1 25.7985 133.705 0 1007 16 47
1949222N25133 1949 55 WP MM NOT_NAMED 1949-08-10 00:00:00 TS 26.3000 134.300 main 631 619 __O___________ -1 26.3000 134.300 0 1007 12 46
1949222N25133 1949 55 WP MM NOT_NAMED 1949-08-10 03:00:00 TS 26.6570 134.704 main 614 602 __P___________ -1 26.6570 134.704 0 1005 9 42
1949222N25133 1949 55 WP MM NOT_NAMED 1949-08-10 06:00:00 TS 27.0000 135.000 main 602 584 __O___________ -1 27.0000 135.000 1 23 1004 10 37
1949222N25133 1949 55 WP MM NOT_NAMED 1949-08-10 09:00:00 TS 27.4401 135.359 main 590 554 __P___________ -1 27.4401 135.359 1 23 1004 11 28
1949222N25133 1949 55 WP MM NOT_NAMED 1949-08-10 12:00:00 TS 28.0000 135.600 main 554 503 __O___________ -1 28.0000 135.600 1 23 1004 13 10
1949222N25133 1949 55 WP MM NOT_NAMED 1949-08-10 15:00:00 TS 28.7498 135.633 main 503 428 __P___________ -1 28.7498 135.633 1 23 1004 15 357
1949222N25133 1949 55 WP MM NOT_NAMED 1949-08-10 18:00:00 TS 29.5000 135.500 main 428 371 __O___________ -1 29.5000 135.500 1 23 1004 14 347
1949222N25133 1949 55 WP MM NOT_NAMED 1949-08-10 21:00:00 TS 30.0674 135.295 main 361 309 __P___________ -1 30.0674 135.295 1 23 1004 11 337
1949222N25133 1949 55 WP MM NOT_NAMED 1949-08-11 00:00:00 TS 30.5000 135.000 main 309 265 __O___________ -1 30.5000 135.000 1 23 1004 9 325
1949222N25133 1949 55 WP MM NOT_NAMED 1949-08-11 03:00:00 TS 30.8375 134.665 main 265 216 __P___________ -1 30.8375 134.665 1 23 1004 9 315
1949222N25133 1949 55 WP MM NOT_NAMED 1949-08-11 06:00:00 TS 31.1000 134.300 main 216 182 __O___________ -1 31.1000 134.300 1 23 1004 8 310
1949222N25133 1949 55 WP MM NOT_NAMED 1949-08-11 09:00:00 TS 31.3575 133.942 main 167 135 __P___________ -1 31.3575 133.942 1 1004 8 310
1949222N25133 1949 55 WP MM NOT_NAMED 1949-08-11 12:00:00 TS 31.6000 133.600 main 135 104 __O___________ -1 31.6000 133.600 0 1004 8 310
1949222N25133 1949 55 WP MM NOT_NAMED 1949-08-11 15:00:00 TS 31.8500 133.263 main 93 66 __P___________ -1 31.8500 133.263 0 1004 7 314
1949222N25133 1949 55 WP MM NOT_NAMED 1949-08-11 18:00:00 TS 32.1000 133.000 main 66 45 __O___________ -1 32.1000 133.000 0 1004 6 323
1949222N25133 1949 55 WP MM NOT_NAMED 1949-08-11 21:00:00 TS 32.3424 132.825 main 48 21 __P___________ -1 32.3424 132.825 0 1004 5 341
1949222N25133 1949 55 WP MM NOT_NAMED 1949-08-12 00:00:00 TS 32.6000 132.800 main 21 0 __O___________ -1 32.6000 132.800 0 1004 6 11
1949222N25133 1949 55 WP MM NOT_NAMED 1949-08-12 03:00:00 TS 32.8902 132.949 main 0 0 __P___________ -1 32.8902 132.949 0 1004 7 29
1949222N25133 1949 55 WP MM NOT_NAMED 1949-08-12 06:00:00 TS 33.2000 133.200 main 0 __O___________ -1 33.2000 133.200 0 1004 7 34

デジタル台風データ・検索

IBTrACS Databaseについて

本データベースは、米国NOAAが公開する1842年以降の世界の熱帯低気圧のベストトラックデータアーカイブInternational Best Track Archive for Climate Stewardship (IBTrACS)を、ウェブで閲覧しやすい形式に変換したものです。

最終更新日:2021-12-06